< < Back
Terminal Aerodrome Forecast


Current Version              Previous Versions:   1  2  3  4  5  6  7  8  9  

Terminal Aerodrome Forecast

085
FTUS42 KCAE 300500
TAFAGS
TAF
KAGS 300532Z 3006/3106 VRB03KT P6SM FEW080
     FM300800 VRB03KT 3SM BR SKC
      TEMPO 3009/3013 1/2SM FG SCT002
     FM301300 12004KT P6SM SCT050=

Latest METAR

923
SAUS70 KWBC 300800 RRC
MTRAGS
METAR KAGS 300753Z AUTO 00000KT 10SM CLR 21/21 A3012 RMK AO2 SLP197
T02110206


USA.gov is the U.S. government's official web portal to all federal, state and local government web resources and services.